Time;durP1;ratioP1;P1;durP2;ratioP2;P2;SDS_P1;SDS_P2;PMS_P1;PMS_P2;Temp;Humidity;BMP_temperature;BMP_pressure;BME280_temperature;BME280_humidity;BME280_pressure;Samples;Min_cycle;Max_cycle;Signal;HPM_P1;HPM_P2
2022/05/01 00:00:51;;;;;;;14.45;12.95;;;;;;;8.47;73.90;102435.47;5000725;28;20033;-65
2022/05/01 00:03:31;;;;;;;16.42;13.73;;;;;;;8.45;74.26;102439.91;5004194;28;20397;-65
2022/05/01 00:06:05;;;;;;;13.82;12.10;;;;;;;8.56;73.67;102446.31;4994476;28;20042;-67
2022/05/01 00:08:31;;;;;;;13.88;12.07;;;;;;;8.55;73.61;102434.31;4985890;28;20050;-64
2022/05/01 00:10:57;;;;;;;14.82;12.57;;;;;;;8.56;73.71;102441.16;4985836;28;20044;-66
2022/05/01 00:13:24;;;;;;;14.85;13.35;;;;;;;8.50;74.25;102432.78;4985744;28;20034;-64
2022/05/01 00:15:50;;;;;;;14.95;12.55;;;;;;;8.54;73.14;102427.44;4983800;28;20030;-65
2022/05/01 00:18:16;;;;;;;14.15;12.68;;;;;;;8.48;73.56;102421.63;4981750;28;20038;-66
2022/05/01 00:20:41;;;;;;;15.20;12.65;;;;;;;8.51;74.24;102431.84;4986351;28;20470;-64
2022/05/01 00:23:07;;;;;;;15.00;12.32;;;;;;;8.51;73.28;102421.50;4990148;28;20348;-66
2022/05/01 00:25:32;;;;;;;15.38;13.32;;;;;;;8.51;73.51;102429.28;5009005;28;20046;-65
2022/05/01 00:27:58;;;;;;;15.02;13.43;;;;;;;8.54;73.34;102423.09;5009578;28;20660;-65
2022/05/01 00:30:26;;;;;;;16.15;12.93;;;;;;;8.49;73.69;102428.50;5009245;28;20450;-65
2022/05/01 00:38:20;;;;;;;13.82;12.18;;;;;;;8.47;73.64;102427.72;4989671;28;20057;-64
2022/05/01 00:40:45;;;;;;;15.57;12.90;;;;;;;8.35;73.38;102412.75;4989347;28;20470;-65
2022/05/01 00:43:11;;;;;;;15.35;12.45;;;;;;;8.45;73.66;102426.97;4989331;28;20387;-67
2022/05/01 00:45:36;;;;;;;15.80;12.90;;;;;;;8.44;73.93;102407.19;4984533;28;20471;-65
2022/05/01 00:48:02;;;;;;;15.63;13.88;;;;;;;8.41;73.33;102412.50;4969603;28;20502;-69
2022/05/01 00:50:27;;;;;;;14.27;12.75;;;;;;;8.44;73.58;102407.19;4970441;28;20050;-65
2022/05/01 00:52:53;;;;;;;16.13;12.65;;;;;;;8.43;73.38;102405.53;4989554;28;20022;-65
2022/05/01 00:55:19;;;;;;;15.23;13.35;;;;;;;8.42;73.58;102419.34;4982902;28;20089;-66
2022/05/01 00:57:47;;;;;;;15.45;13.80;;;;;;;8.36;74.00;102413.63;4970261;28;20037;-65
2022/05/01 01:00:13;;;;;;;14.73;12.18;;;;;;;8.39;74.50;102405.75;4988436;28;20053;-66
2022/05/01 01:02:38;;;;;;;14.25;12.75;;;;;;;8.27;74.41;102399.38;5005234;28;20470;-66
2022/05/01 01:05:05;;;;;;;15.90;13.05;;;;;;;8.32;74.00;102407.75;4983403;28;20046;-65
2022/05/01 01:07:31;;;;;;;15.45;13.18;;;;;;;8.30;74.68;102396.63;4989099;28;20056;-65
2022/05/01 01:09:57;;;;;;;18.77;14.27;;;;;;;8.30;74.45;102404.38;4987005;28;20474;-65
2022/05/01 01:15:09;;;;;;;15.85;13.30;;;;;;;8.34;73.96;102405.91;4988647;28;20053;-66
2022/05/01 01:17:42;;;;;;;15.25;12.55;;;;;;;8.35;74.28;102397.25;4988669;28;20027;-65
2022/05/01 01:20:17;;;;;;;16.15;12.77;;;;;;;8.38;74.12;102397.16;4988401;28;20121;-66
2022/05/01 01:22:47;;;;;;;15.45;13.85;;;;;;;8.33;74.46;102408.59;4989222;28;20026;-64
2022/05/01 01:25:13;;;;;;;16.30;12.93;;;;;;;8.30;74.16;102401.78;4988470;28;20110;-67
2022/05/01 01:27:39;;;;;;;15.85;13.07;;;;;;;8.32;74.24;102402.59;4988233;28;20030;-67
2022/05/01 01:32:50;;;;;;;16.30;12.93;;;;;;;8.36;74.11;102408.47;4988540;28;20041;-66
2022/05/01 01:35:18;;;;;;;14.80;12.77;;;;;;;8.34;73.94;102400.75;4988476;28;20479;-65
2022/05/01 01:37:47;;;;;;;14.10;12.48;;;;;;;8.37;74.06;102405.81;4989718;28;20046;-66
2022/05/01 01:40:20;;;;;;;15.90;12.98;;;;;;;8.38;74.74;102404.91;5003774;28;20034;-65
2022/05/01 01:42:46;;;;;;;15.50;13.70;;;;;;;8.36;73.67;102404.13;4991240;28;20030;-68
2022/05/01 01:45:13;;;;;;;17.75;12.82;;;;;;;8.38;73.69;102402.31;4987767;28;20429;-65
2022/05/01 01:47:38;;;;;;;14.77;12.73;;;;;;;8.32;73.86;102402.59;5005633;28;20040;-67
2022/05/01 01:50:05;;;;;;;16.00;14.40;;;;;;;8.26;73.80;102387.38;4994809;28;20034;-65
2022/05/01 01:52:33;;;;;;;14.57;13.05;;;;;;;8.29;73.74;102391.53;4988354;28;20033;-65
2022/05/01 01:54:59;;;;;;;17.60;13.77;;;;;;;8.35;73.53;102404.16;4995895;28;20021;-66
2022/05/01 01:57:25;;;;;;;15.27;12.85;;;;;;;8.31;74.37;102390.53;4997921;28;20034;-66
2022/05/01 01:59:50;;;;;;;16.75;14.10;;;;;;;8.25;73.90;102385.66;4988330;28;20030;-65
2022/05/01 02:02:15;;;;;;;17.13;15.32;;;;;;;8.20;74.13;102397.97;4987611;28;20033;-65
2022/05/01 02:04:41;;;;;;;16.67;13.45;;;;;;;8.22;74.78;102389.25;4987985;28;20137;-67
2022/05/01 02:07:06;;;;;;;16.10;14.10;;;;;;;8.22;74.55;102385.81;4988388;28;20057;-65
2022/05/01 02:09:36;;;;;;;15.93;13.18;;;;;;;8.27;74.02;102389.03;4988004;28;20030;-65
2022/05/01 02:12:01;;;;;;;15.68;13.50;;;;;;;8.24;74.43;102381.41;4995084;28;20035;-65
2022/05/01 02:14:27;;;;;;;16.42;12.98;;;;;;;8.24;74.62;102386.56;5006758;28;20037;-65
2022/05/01 02:16:55;;;;;;;15.95;12.98;;;;;;;8.26;75.30;102387.38;4987769;28;20042;-66
2022/05/01 02:19:20;;;;;;;16.95;13.70;;;;;;;8.23;74.74;102387.50;4987642;28;20068;-66
2022/05/01 02:21:47;;;;;;;16.30;13.55;;;;;;;8.18;75.28;102384.28;4988012;28;20038;-65
2022/05/01 02:24:12;;;;;;;16.52;13.88;;;;;;;8.17;75.55;102387.78;4986469;28;20026;-65
2022/05/01 02:26:38;;;;;;;16.90;14.02;;;;;;;8.15;75.93;102389.59;4987638;28;20549;-65
2022/05/01 02:29:12;;;;;;;16.55;14.20;;;;;;;8.16;75.43;102386.09;4987639;28;20026;-65
2022/05/01 02:31:42;;;;;;;17.05;14.70;;;;;;;8.12;76.30;102389.72;4987977;28;20054;-65
2022/05/01 02:34:08;;;;;;;18.10;15.07;;;;;;;8.06;76.17;102390.84;4987207;28;20038;-67
2022/05/01 02:36:34;;;;;;;17.70;14.90;;;;;;;8.08;76.25;102388.19;4987649;28;20034;-69
2022/05/01 02:38:59;;;;;;;18.15;14.65;;;;;;;8.02;76.20;102372.97;4986113;28;20096;-67
2022/05/01 02:41:25;;;;;;;17.05;14.73;;;;;;;7.93;76.01;102374.25;4986401;28;20035;-65
2022/05/01 02:43:51;;;;;;;17.52;15.63;;;;;;;7.90;77.14;102371.78;4987028;28;20041;-65
2022/05/01 02:46:16;;;;;;;16.23;14.23;;;;;;;7.86;76.62;102358.19;4995466;28;20025;-65
2022/05/01 02:48:42;;;;;;;18.08;14.23;;;;;;;7.87;76.59;102374.53;5007140;28;20465;-65
2022/05/01 02:51:07;;;;;;;18.83;15.07;;;;;;;7.81;77.19;102370.47;5006611;28;20029;-66
2022/05/01 02:53:33;;;;;;;18.42;15.23;;;;;;;7.73;77.25;102362.22;5003042;28;20037;-66
2022/05/01 02:56:02;;;;;;;16.42;13.93;;;;;;;7.80;77.00;102367.94;4987082;28;20037;-65
2022/05/01 02:58:28;;;;;;;;;;;;;;;7.92;75.57;102363.06;4987571;28;20030;-65
2022/05/01 03:00:53;;;;;;;19.30;14.75;;;;;;;7.82;76.64;102369.56;4987422;28;19909;-65
2022/05/01 03:03:19;;;;;;;18.35;14.32;;;;;;;7.83;77.29;102368.66;4986682;28;20482;-65
2022/05/01 03:05:44;;;;;;;18.15;15.20;;;;;;;7.82;76.96;102366.97;4986970;28;20084;-65
2022/05/01 03:08:12;;;;;;;17.50;15.52;;;;;;;7.76;77.68;102359.50;4986517;28;20030;-65
2022/05/01 03:10:37;;;;;;;18.42;14.80;;;;;;;7.72;78.29;102366.53;4986683;28;20061;-65
2022/05/01 03:13:03;;;;;;;18.27;14.95;;;;;;;7.73;78.18;102360.47;4987457;28;20046;-65
2022/05/01 03:15:28;;;;;;;18.13;15.52;;;;;;;7.78;77.85;102365.44;4986634;28;20496;-65
2022/05/01 03:23:21;;;;;;;18.65;16.00;;;;;;;7.68;77.78;102348.66;4986022;28;20037;-67
2022/05/01 03:25:47;;;;;;;19.45;15.82;;;;;;;7.65;77.86;102348.81;4986717;28;20030;-65
2022/05/01 03:28:12;;;;;;;18.25;15.95;;;;;;;7.57;78.12;102344.00;4986582;28;20027;-66
2022/05/01 03:30:38;;;;;;;20.10;15.85;;;;;;;7.66;78.38;102350.50;4985292;28;20337;-65
2022/05/01 03:33:05;;;;;;;19.42;16.05;;;;;;;7.61;77.95;102342.13;4986538;28;20386;-65
2022/05/01 03:35:31;;;;;;;19.60;16.63;;;;;;;7.65;78.14;102354.00;4986598;28;20093;-65
2022/05/01 03:37:56;;;;;;;19.05;15.80;;;;;;;7.68;78.45;102353.84;4984418;28;20406;-65
2022/05/01 03:40:22;;;;;;;19.80;16.48;;;;;;;7.65;77.76;102352.25;4985739;28;20109;-67
2022/05/01 03:42:47;;;;;;;19.33;16.52;;;;;;;7.67;77.86;102347.00;4986556;28;20109;-64
2022/05/01 03:45:13;;;;;;;18.85;16.85;;;;;;;7.63;78.30;102350.66;4986128;28;20129;-65
2022/05/01 03:47:38;;;;;;;19.63;16.08;;;;;;;7.60;78.66;102340.44;5004604;28;20341;-65
2022/05/01 03:50:05;;;;;;;20.40;16.10;;;;;;;7.49;78.02;102329.75;5005810;28;20025;-66
2022/05/01 03:52:30;;;;;;;20.08;16.38;;;;;;;7.57;79.11;102343.16;5000616;28;20031;-65
2022/05/01 03:54:55;;;;;;;20.25;16.77;;;;;;;7.56;78.01;102349.22;4987608;28;20104;-65
2022/05/01 03:57:21;;;;;;;20.35;16.60;;;;;;;7.56;78.22;102344.06;4990556;28;20471;-65
2022/05/01 03:59:47;;;;;;;19.98;16.55;;;;;;;7.55;78.67;102353.56;4990390;28;20479;-65
2022/05/01 04:02:14;;;;;;;19.27;15.68;;;;;;;7.47;78.79;102339.31;4990232;28;20081;-65
2022/05/01 04:04:40;;;;;;;21.10;16.48;;;;;;;7.44;78.80;102341.13;4990355;28;20108;-65
2022/05/01 04:07:05;;;;;;;20.05;17.35;;;;;;;7.37;78.84;102350.03;4989925;28;20034;-65
2022/05/01 04:09:30;;;;;;;19.55;16.00;;;;;;;7.42;78.61;102348.09;4989653;28;20072;-65
2022/05/01 04:11:55;;;;;;;20.17;17.17;;;;;;;7.37;79.20;102349.19;4990457;28;20018;-65
2022/05/01 04:14:21;;;;;;;20.65;16.70;;;;;;;7.31;79.45;102345.16;4988226;28;20039;-65
2022/05/01 04:16:46;;;;;;;19.83;16.60;;;;;;;7.31;78.89;102350.31;4990273;28;20037;-64
2022/05/01 04:19:12;;;;;;;20.13;16.10;;;;;;;7.31;78.97;102357.22;4989517;28;20054;-65
2022/05/01 04:21:38;;;;;;;18.83;16.27;;;;;;;7.26;78.83;102354.81;4990115;28;20022;-65
2022/05/01 04:24:04;;;;;;;22.05;18.00;;;;;;;7.16;79.27;102343.22;4990059;28;20034;-65
2022/05/01 04:26:30;;;;;;;18.98;16.27;;;;;;;7.17;78.98;102357.81;4989388;28;20031;-65
2022/05/01 04:31:39;;;;;;;20.10;16.73;;;;;;;7.12;79.81;102359.75;4990006;28;20510;-64
2022/05/01 04:34:04;;;;;;;20.20;16.52;;;;;;;7.08;79.75;102355.63;4989852;28;20066;-65
2022/05/01 04:36:30;;;;;;;21.92;17.58;;;;;;;7.04;80.21;102356.66;4989056;28;20050;-65
2022/05/01 04:38:55;;;;;;;22.38;17.33;;;;;;;7.00;79.78;102344.81;4990016;28;20113;-65
2022/05/01 04:41:20;;;;;;;20.70;16.38;;;;;;;7.03;80.50;102349.81;4989302;28;20035;-66
2022/05/01 04:43:46;;;;;;;21.83;18.02;;;;;;;6.98;80.46;102356.91;4989604;28;20522;-65
2022/05/01 04:46:12;;;;;;;21.05;18.23;;;;;;;6.93;80.75;102360.50;4995097;28;20040;-65
2022/05/01 04:48:38;;;;;;;19.73;17.42;;;;;;;6.95;81.51;102349.31;4989381;28;20101;-65
2022/05/01 04:51:05;;;;;;;21.08;17.70;;;;;;;6.96;80.90;102363.88;5003173;28;20034;-65
2022/05/01 04:53:30;;;;;;;21.30;18.05;;;;;;;6.93;81.00;102360.50;4989392;28;20445;-64
2022/05/01 04:57:04;;;;;;;22.38;18.33;;;;;;;6.92;80.69;102358.84;4988329;28;20113;-65
2022/05/01 04:58:41;;;;;;;21.58;18.30;;;;;;;6.96;80.69;102358.72;4989611;28;20049;-65
2022/05/01 05:01:06;;;;;;;21.35;18.73;;;;;;;6.90;81.45;102360.66;4989685;28;20034;-65
2022/05/01 05:03:32;;;;;;;22.75;18.95;;;;;;;6.89;81.26;102361.56;4989319;28;20026;-65
2022/05/01 05:05:57;;;;;;;22.77;18.88;;;;;;;6.87;81.91;102360.75;4988075;28;20050;-65
2022/05/01 05:11:06;;;;;;;21.45;18.73;;;;;;;6.85;81.46;102370.31;4989466;28;20045;-65
2022/05/01 05:13:33;;;;;;;23.30;19.13;;;;;;;6.85;81.89;102367.75;4988466;28;20026;-64
2022/05/01 05:15:59;;;;;;;24.65;19.45;;;;;;;6.89;81.59;102369.28;4988919;28;20120;-64
2022/05/01 05:18:25;;;;;;;22.77;18.45;;;;;;;6.87;82.21;102365.91;4968011;28;20048;-65
2022/05/01 05:20:51;;;;;;;22.13;18.75;;;;;;;6.93;81.76;102375.97;4969322;28;20487;-64
2022/05/01 05:23:17;;;;;;;21.70;17.60;;;;;;;6.93;81.75;102369.97;4984006;28;20046;-65
2022/05/01 05:25:43;;;;;;;22.67;18.05;;;;;;;6.99;81.99;102368.91;5020770;23;20124;-65
2022/05/01 05:28:08;;;;;;;24.05;18.65;;;;;;;6.98;81.35;102370.63;5008392;28;20069;-65
2022/05/01 05:30:34;;;;;;;22.77;19.52;;;;;;;6.93;81.49;102370.81;5008105;28;20837;-64
2022/05/01 05:33:01;;;;;;;23.13;18.92;;;;;;;6.93;81.73;102370.81;5008503;28;20021;-65
2022/05/01 05:35:26;;;;;;;25.15;19.65;;;;;;;6.98;81.57;102388.69;5007857;28;20030;-64
2022/05/01 05:37:52;;;;;;;22.83;18.67;;;;;;;7.03;82.25;102386.75;5008197;28;20034;-65
2022/05/01 05:40:17;;;;;;;22.52;19.08;;;;;;;7.02;81.45;102386.84;5008263;28;20030;-64
2022/05/01 05:42:44;;;;;;;24.77;19.75;;;;;;;7.02;81.96;102389.41;5008412;28;20036;-67
2022/05/01 05:45:12;;;;;;;24.75;19.10;;;;;;;7.00;81.71;102391.22;4988284;28;20085;-67
2022/05/01 05:47:37;;;;;;;21.65;18.63;;;;;;;6.92;81.67;102374.31;5007931;28;20275;-65
2022/05/01 05:50:03;;;;;;;21.67;18.58;;;;;;;7.00;81.48;102392.06;5007122;28;20037;-65
2022/05/01 05:52:28;;;;;;;22.25;19.20;;;;;;;6.91;81.75;102382.97;5006030;28;20037;-66
2022/05/01 05:54:53;;;;;;;22.02;19.05;;;;;;;6.91;82.18;102388.13;5007951;28;20508;-65
2022/05/01 05:57:19;;;;;;;25.05;20.33;;;;;;;6.91;81.83;102390.69;5007613;28;20537;-64
2022/05/01 05:59:44;;;;;;;22.90;19.15;;;;;;;6.97;81.54;102396.50;5002999;28;20036;-65
2022/05/01 06:02:09;;;;;;;22.95;19.95;;;;;;;6.97;82.29;102392.19;5005885;28;20474;-68
2022/05/01 06:04:36;;;;;;;22.95;19.83;;;;;;;7.05;82.34;102394.44;5006312;28;20033;-65
2022/05/01 06:07:01;;;;;;;24.15;19.45;;;;;;;7.14;82.69;102405.22;5007006;28;20029;-68
2022/05/01 06:09:27;;;;;;;23.23;18.88;;;;;;;7.17;82.40;102388.78;5003874;28;20038;-65
2022/05/01 06:11:52;;;;;;;23.33;20.52;;;;;;;7.29;81.93;102400.34;5007096;28;20022;-66
2022/05/01 06:14:17;;;;;;;22.90;18.98;;;;;;;7.35;82.16;102397.47;5006110;28;20033;-69
2022/05/01 06:16:43;;;;;;;25.52;19.85;;;;;;;7.42;82.50;102404.88;5006955;28;20022;-65
2022/05/01 06:19:08;;;;;;;20.38;18.17;;;;;;;7.50;81.79;102411.47;5005371;28;20401;-65
2022/05/01 06:21:33;;;;;;;21.42;18.92;;;;;;;7.49;82.26;102410.63;5004724;28;20065;-65
2022/05/01 06:23:59;;;;;;;21.45;19.15;;;;;;;7.55;81.03;102409.53;5007254;28;20050;-65
2022/05/01 06:26:24;;;;;;;20.35;17.48;;;;;;;7.55;80.94;102419.84;5006831;28;20026;-65
2022/05/01 06:28:50;;;;;;;21.48;18.35;;;;;;;7.56;80.91;102411.19;5005914;28;20084;-66
2022/05/01 06:31:16;;;;;;;23.65;19.20;;;;;;;7.58;81.08;102415.41;5005678;28;20386;-65
2022/05/01 06:33:43;;;;;;;23.83;18.73;;;;;;;7.62;81.45;102416.09;5006251;28;20026;-67
2022/05/01 06:36:09;;;;;;;23.05;19.10;;;;;;;7.66;81.23;102409.88;5007161;28;20030;-66
2022/05/01 06:38:35;;;;;;;21.30;18.95;;;;;;;7.64;80.30;102404.81;5006916;28;20108;-65
2022/05/01 06:41:03;;;;;;;23.48;18.55;;;;;;;7.68;80.00;102410.66;5005896;28;20034;-65
2022/05/01 06:43:29;;;;;;;20.88;17.52;;;;;;;7.77;81.19;102415.41;5005700;28;20053;-65
2022/05/01 06:45:54;;;;;;;22.83;17.80;;;;;;;7.79;81.21;102411.00;5002043;28;20100;-65
2022/05/01 06:48:20;;;;;;;23.35;19.30;;;;;;;7.77;80.50;102402.50;5001848;28;20091;-65
2022/05/01 06:50:45;;;;;;;19.95;16.98;;;;;;;7.83;79.38;102404.81;5005470;28;20111;-69
2022/05/01 06:53:10;;;;;;;22.15;19.55;;;;;;;7.88;80.03;102402.88;5004941;28;20378;-65
2022/05/01 06:55:36;;;;;;;22.58;19.80;;;;;;;7.99;81.09;102410.13;5006623;28;20036;-65
2022/05/01 06:58:01;;;;;;;22.70;18.77;;;;;;;8.02;80.23;102419.47;5007022;28;20057;-66
2022/05/01 07:00:27;;;;;;;22.10;19.27;;;;;;;8.11;80.58;102413.91;5006486;28;20093;-65
2022/05/01 07:02:53;;;;;;;20.85;18.65;;;;;;;8.19;80.02;102417.81;5004835;28;20030;-68
2022/05/01 07:05:21;;;;;;;22.27;18.02;;;;;;;8.21;79.37;102415.16;5005344;28;20026;-65
2022/05/01 07:07:48;;;;;;;21.25;18.85;;;;;;;8.23;79.32;102409.00;5006836;28;20026;-65
2022/05/01 07:10:14;;;;;;;21.83;18.05;;;;;;;8.29;78.77;102407.03;5005638;28;20060;-65
2022/05/01 07:12:39;;;;;;;22.02;18.00;;;;;;;8.38;79.19;102417.84;5006004;28;20065;-65
2022/05/01 07:15:06;;;;;;;23.23;18.15;;;;;;;8.43;79.04;102413.28;5004178;28;20072;-65
2022/05/01 07:17:32;;;;;;;20.05;17.70;;;;;;;8.49;78.51;102413.00;5005672;28;20458;-65
2022/05/01 07:19:58;;;;;;;20.25;18.05;;;;;;;8.49;77.67;102410.41;5005143;28;20029;-65
2022/05/01 07:22:23;;;;;;;20.40;18.13;;;;;;;8.59;78.20;102409.97;5020959;28;20113;-65
2022/05/01 07:24:49;;;;;;;20.90;18.70;;;;;;;8.55;78.17;102392.94;5005757;28;20053;-65
2022/05/01 07:27:14;;;;;;;20.02;17.70;;;;;;;8.64;77.53;102410.56;5004971;28;20036;-69
2022/05/01 07:29:40;;;;;;;21.13;18.83;;;;;;;8.74;78.99;102409.22;5002980;28;20030;-65
2022/05/01 07:32:05;;;;;;;23.20;18.88;;;;;;;8.83;79.03;102411.38;5005589;28;20118;-64
2022/05/01 07:34:31;;;;;;;22.77;19.20;;;;;;;8.90;78.33;102415.34;5005327;28;20021;-66
2022/05/01 07:36:56;;;;;;;21.55;18.52;;;;;;;8.93;77.84;102409.16;5006804;28;20038;-68
2022/05/01 07:39:21;;;;;;;19.92;17.40;;;;;;;8.90;76.91;102405.00;5006039;28;20492;-65
2022/05/01 07:41:47;;;;;;;20.27;18.13;;;;;;;9.02;77.29;102416.47;5006313;28;20099;-66
2022/05/01 07:44:12;;;;;;;19.48;17.42;;;;;;;9.09;76.57;102417.84;5004870;28;20034;-66
2022/05/01 07:46:38;;;;;;;20.42;17.45;;;;;;;9.13;76.62;102421.13;5006232;28;20423;-65
2022/05/01 07:49:05;;;;;;;19.77;17.73;;;;;;;9.15;76.86;102404.59;5005900;28;20036;-65
2022/05/01 07:51:30;;;;;;;21.08;18.85;;;;;;;9.19;76.28;102416.47;5005552;28;20033;-65
2022/05/01 07:53:58;;;;;;;19.75;17.40;;;;;;;9.26;76.25;102417.00;5006178;28;20524;-66
2022/05/01 07:56:26;;;;;;;19.52;16.42;;;;;;;9.33;76.33;102418.34;5005811;28;20026;-65
2022/05/01 07:58:52;;;;;;;20.38;16.25;;;;;;;9.39;75.13;102405.09;5005488;28;20029;-65
2022/05/01 08:01:17;;;;;;;18.45;16.52;;;;;;;9.39;75.10;102412.84;5005725;28;20065;-65
2022/05/01 08:06:26;;;;;;;21.38;18.35;;;;;;;9.43;75.54;102411.78;5005582;28;20627;-67
2022/05/01 08:08:52;;;;;;;20.77;18.58;;;;;;;9.46;75.04;102409.06;5006548;28;20109;-65
2022/05/01 08:11:18;;;;;;;18.58;16.42;;;;;;;9.53;73.91;102407.81;5005649;28;20478;-65
2022/05/01 08:13:43;;;;;;;17.10;15.40;;;;;;;9.53;73.71;102410.41;5005597;28;20048;-65
2022/05/01 08:16:08;;;;;;;19.48;17.13;;;;;;;9.60;73.30;102410.09;5004525;28;20401;-65
2022/05/01 08:21:17;;;;;;;19.70;17.73;;;;;;;9.72;72.25;102409.44;5005742;28;20095;-65
2022/05/01 08:23:43;;;;;;;19.92;17.88;;;;;;;9.75;73.65;102409.31;5005482;28;20030;-65
2022/05/01 08:26:10;;;;;;;19.77;17.77;;;;;;;9.82;74.00;102410.66;5005372;28;20523;-67
2022/05/01 08:28:38;;;;;;;15.30;13.70;;;;;;;9.89;71.15;102403.38;5005319;28;20029;-66
2022/05/01 08:31:05;;;;;;;16.55;14.52;;;;;;;10.03;71.87;102404.28;5005111;28;20041;-68
2022/05/01 08:33:31;;;;;;;14.50;11.18;;;;;;;10.04;68.40;102406.00;5005569;28;20018;-65
2022/05/01 08:35:56;;;;;;;14.60;11.88;;;;;;;10.09;70.49;102388.44;5005481;28;20038;-69
2022/05/01 08:38:22;;;;;;;14.13;12.73;;;;;;;10.14;68.83;102408.06;5005212;28;20847;-64
2022/05/01 08:40:50;;;;;;;16.65;13.38;;;;;;;10.14;69.84;102392.50;5003240;28;20398;-65
2022/05/01 08:43:17;;;;;;;15.38;13.18;;;;;;;10.24;69.80;102391.13;5005718;28;20125;-65
2022/05/01 08:46:00;;;;;;;14.25;12.70;;;;;;;10.34;70.33;102392.28;5007971;28;20112;-66
2022/05/01 08:48:44;;;;;;;16.20;12.93;;;;;;;10.39;69.17;102392.88;5005772;28;20438;-65
2022/05/01 08:51:10;;;;;;;14.57;12.65;;;;;;;10.52;68.92;102393.84;5006652;28;20029;-69
2022/05/01 08:53:37;;;;;;;14.98;13.38;;;;;;;10.54;69.21;102389.41;5006436;28;20072;-66
2022/05/01 08:56:05;;;;;;;14.88;13.27;;;;;;;10.79;70.20;102388.88;5006171;28;20030;-68
2022/05/01 08:58:31;;;;;;;13.70;12.30;;;;;;;10.76;66.93;102393.38;5006822;28;20537;-66
2022/05/01 09:00:58;;;;;;;13.50;12.15;;;;;;;10.88;66.59;102388.31;5008474;28;20121;-67
2022/05/01 09:03:24;;;;;;;14.13;12.57;;;;;;;10.93;65.68;102385.44;5008193;28;20409;-67
2022/05/01 09:05:50;;;;;;;14.68;13.18;;;;;;;11.03;66.61;102396.97;5008761;28;20084;-65
2022/05/01 09:08:16;;;;;;;14.48;12.70;;;;;;;11.04;65.36;102393.44;5008177;28;20026;-67
2022/05/01 09:10:43;;;;;;;14.77;13.02;;;;;;;11.28;66.83;102390.34;5009045;28;20083;-65
2022/05/01 09:13:09;;;;;;;14.68;12.75;;;;;;;11.32;65.67;102386.63;5007667;28;20069;-66
2022/05/01 09:15:46;;;;;;;13.63;11.65;;;;;;;11.49;64.43;102389.06;5008259;28;20061;-65
2022/05/01 09:18:14;;;;;;;11.95;8.90;;;;;;;11.59;60.43;102392.78;5007855;28;20470;-68
2022/05/01 09:21:04;;;;;;;13.30;9.88;;;;;;;11.75;62.28;102391.81;5023093;28;20483;-67
2022/05/01 09:23:43;;;;;;;11.07;8.93;;;;;;;11.85;59.17;102393.78;5005308;28;20430;-65
2022/05/01 09:26:14;;;;;;;11.52;8.68;;;;;;;11.81;58.60;102389.69;5006940;28;20947;-66
2022/05/01 09:28:53;;;;;;;8.55;7.65;;;;;;;12.01;59.69;102390.25;5008667;28;20033;-66
2022/05/01 09:31:46;;;;;;;7.95;6.25;;;;;;;12.14;57.82;102391.97;5022261;28;20513;-70
2022/05/01 09:34:32;;;;;;;10.05;7.10;;;;;;;12.21;56.27;102402.81;5007320;28;20033;-66
2022/05/01 09:37:03;;;;;;;8.18;5.60;;;;;;;12.18;53.51;102388.25;5007639;28;20056;-66
2022/05/01 09:39:30;;;;;;;8.77;6.95;;;;;;;12.15;56.34;102393.63;5006819;28;20034;-66
2022/05/01 09:42:13;;;;;;;8.67;7.70;;;;;;;12.22;56.02;102394.09;5007598;28;20034;-68
2022/05/01 09:44:38;;;;;;;8.68;7.22;;;;;;;12.30;56.90;102385.81;5007082;28;20049;-66
2022/05/01 09:47:04;;;;;;;8.27;5.80;;;;;;;12.32;54.40;102387.34;5007443;28;20033;-67
2022/05/01 09:49:46;;;;;;;7.80;5.82;;;;;;;12.33;53.25;102390.78;5004979;28;20402;-66
2022/05/01 09:52:12;;;;;;;8.00;5.68;;;;;;;12.29;52.55;102381.53;5006239;28;20568;-66
2022/05/01 09:54:37;;;;;;;7.93;6.00;;;;;;;12.17;50.95;102383.97;5006468;28;20029;-66
2022/05/01 09:57:03;;;;;;;7.88;5.82;;;;;;;12.18;52.19;102383.03;5006634;28;20026;-67
2022/05/01 09:59:29;;;;;;;8.00;5.72;;;;;;;12.10;52.31;102395.72;5004541;28;20034;-65
2022/05/01 10:02:03;;;;;;;7.80;5.53;;;;;;;12.12;52.14;102373.03;5006591;28;20029;-68
2022/05/01 10:04:36;;;;;;;9.63;5.72;;;;;;;12.21;52.57;102382.88;5004926;28;20513;-65
2022/05/01 10:07:03;;;;;;;7.15;5.60;;;;;;;12.17;51.58;102386.59;5006461;28;20077;-65
2022/05/01 10:09:35;;;;;;;8.90;5.88;;;;;;;12.36;51.01;102386.25;5006331;28;20021;-67
2022/05/01 10:12:06;;;;;;;8.02;5.95;;;;;;;12.50;51.96;102390.53;5006436;28;21073;-66
2022/05/01 10:14:32;;;;;;;6.75;5.53;;;;;;;12.45;48.54;102384.81;5001217;28;20045;-66
2022/05/01 10:16:58;;;;;;;7.25;5.30;;;;;;;12.58;49.75;102380.47;5005816;28;20454;-70
2022/05/01 10:19:24;;;;;;;7.20;5.90;;;;;;;12.51;47.74;102374.03;5006007;28;20029;-67
2022/05/01 10:21:51;;;;;;;7.75;5.35;;;;;;;12.58;47.14;102380.47;5006604;28;20054;-66
2022/05/01 10:24:18;;;;;;;7.53;5.68;;;;;;;12.49;46.53;102373.25;5005610;28;20041;-66
2022/05/01 10:27:06;;;;;;;7.80;5.70;;;;;;;12.49;46.79;102375.88;5006433;28;20112;-67
2022/05/01 10:33:07;;;;;;;9.85;6.65;;;;;;;12.72;47.76;102367.38;5005941;28;20076;-66
2022/05/01 10:36:06;;;;;;;7.32;5.80;;;;;;;12.75;46.33;102366.38;5005631;28;20026;-66
2022/05/01 10:38:43;;;;;;;7.40;5.47;;;;;;;12.68;44.60;102365.94;5005610;28;20117;-66
2022/05/01 10:41:10;;;;;;;7.03;5.85;;;;;;;12.79;46.65;102361.75;5005436;28;20060;-66
2022/05/01 10:43:37;;;;;;;7.33;5.70;;;;;;;12.85;45.26;102366.59;5007352;28;20032;-66
2022/05/01 10:46:21;;;;;;;8.30;5.95;;;;;;;13.02;48.10;102358.50;5005251;28;20092;-66
2022/05/01 10:48:47;;;;;;;9.02;6.47;;;;;;;12.88;46.34;102351.59;5007078;28;20466;-68
2022/05/01 10:51:31;;;;;;;11.93;7.13;;;;;;;12.99;47.75;102356.91;5006827;28;20034;-66
2022/05/01 10:54:19;;;;;;;10.02;6.55;;;;;;;13.15;47.80;102348.91;5006233;28;20450;-66
2022/05/01 10:56:50;;;;;;;7.97;6.38;;;;;;;13.08;46.46;102352.03;5006846;28;20096;-67
2022/05/01 10:59:30;;;;;;;7.97;6.90;;;;;;;13.29;47.38;102340.97;5006318;28;20036;-67
2022/05/01 11:01:57;;;;;;;8.07;6.50;;;;;;;13.22;45.04;102344.94;5005850;28;20062;-68
2022/05/01 11:04:22;;;;;;;8.23;6.30;;;;;;;13.22;44.34;102339.75;5004586;28;20030;-66
2022/05/01 11:06:52;;;;;;;7.88;6.60;;;;;;;13.61;46.24;102340.53;5006652;28;20493;-67
2022/05/01 11:09:19;;;;;;;8.63;6.70;;;;;;;13.60;46.57;102332.81;5006196;28;20083;-67
2022/05/01 11:11:45;;;;;;;9.40;7.00;;;;;;;13.74;45.00;102341.31;5005406;28;20033;-66
2022/05/01 11:14:13;;;;;;;9.25;6.82;;;;;;;13.69;44.76;102330.38;5006291;28;20041;-68
2022/05/01 11:16:52;;;;;;;9.07;6.70;;;;;;;13.74;44.10;102330.06;5006821;28;20041;-66
2022/05/01 11:19:17;;;;;;;9.10;7.10;;;;;;;13.42;43.74;102327.09;5005781;28;20049;-68
2022/05/01 11:21:47;;;;;;;8.48;6.95;;;;;;;13.63;45.66;102327.38;5005579;28;20593;-70
2022/05/01 11:24:15;;;;;;;9.30;7.32;;;;;;;13.74;47.10;102336.09;5005544;28;20513;-67
2022/05/01 11:27:16;;;;;;;10.15;6.82;;;;;;;13.64;45.15;102324.66;5001437;28;20038;-67
2022/05/01 11:30:08;;;;;;;9.00;7.20;;;;;;;13.54;45.74;102328.88;5004508;28;20033;-67
2022/05/01 11:32:48;;;;;;;9.70;7.03;;;;;;;13.41;45.52;102328.03;5000699;28;20034;-66
2022/05/01 11:35:14;;;;;;;9.15;6.90;;;;;;;13.38;46.07;102317.84;5003815;28;20089;-67
2022/05/01 11:38:08;;;;;;;9.90;7.05;;;;;;;13.55;47.10;102318.34;5005677;28;20390;-66
2022/05/01 11:40:33;;;;;;;8.77;6.82;;;;;;;13.43;45.39;102310.53;5005808;28;20033;-66
2022/05/01 11:43:18;;;;;;;8.55;6.90;;;;;;;13.48;46.42;102308.44;5006090;28;20398;-67
2022/05/01 11:45:47;;;;;;;10.63;7.35;;;;;;;13.39;45.32;102309.09;5004486;28;20529;-68
2022/05/01 11:48:15;;;;;;;;;;;;;;;13.64;46.69;102295.16;5006275;28;20655;-66
2022/05/01 11:50:42;;;;;;;13.05;7.45;;;;;;;13.53;47.45;102291.56;5004944;28;19924;-66
2022/05/01 11:53:22;;;;;;;8.77;7.20;;;;;;;13.59;46.48;102300.72;5000763;28;20068;-67